ADDS METAR Data INFO
IDs: Format: Raw Decoded Include TAF

Data at: 1518 UTC 11 Dec 2017

KBDL 111451Z 25004KT 10SM FEW085 01/M06 A2998 RMK AO2 SLP154 T00111056 53005
KBDL 111351Z 19006KT 10SM BKN085 M01/M06 A2998 RMK AO2 SLP155 T10061056
KBDL 111251Z 17006KT 10SM BKN085 OVC120 M01/M05 A2996 RMK AO2 SLP148 T10061050
KBDL 111151Z 21006KT 10SM SCT065 BKN080 OVC120 M01/M05 A2997 RMK AO2 SLP149 4/005 T10061050 10006 21006 53009
KBDL 111051Z 22008KT 10SM FEW070 BKN090 BKN110 M01/M05 A2996 RMK AO2 SLP145 T10061050
KBDL 110951Z 21006KT 10SM FEW065 BKN080 OVC110 M01/M05 A2994 RMK AO2 SLP142 T10061050
KBDL 110851Z 22007KT 10SM BKN060 OVC160 M01/M06 A2994 RMK AO2 SLP140 T10061056 56003
KBDL 110751Z 24011KT 10SM FEW065 BKN080 OVC110 00/M06 A2994 RMK AO2 SLP140 T00001056
KBDL 110651Z 26011KT 10SM BKN065 OVC080 00/M06 A2995 RMK AO2 SLP142 T00001061
KBDL 110551Z COR 26012KT 10SM SCT065 BKN080 OVC120 00/M06 A2995 RMK AO2 SLP143 4/005 T00001056 10011 21006 50001
KBDL 110451Z 25010KT 10SM SCT100 BKN120 OVC150 01/M06 A2995 RMK AO2 SLP145 T00061056 400281039
KBDL 110351Z 23012KT 10SM SCT120 BKN150 01/M06 A2995 RMK AO2 SLP143 T00061056
KBDL 110251Z 22008KT 10SM FEW120 BKN150 01/M05 A2995 RMK AO2 SLP142 T00111050 53005
KBDL 110151Z 21009KT 10SM SCT060 BKN120 OVC190 01/M05 A2994 RMK AO2 SLP139 T00061050
KBDL 110051Z 18007KT 10SM FEW065 BKN140 M01/M06 A2993 RMK AO2 SLP138 T10061056
KBDL 102351Z 21006KT 10SM BKN065 01/M06 A2993 RMK AO2 SLP137 4/005 T00061061 10028 21006 51019
KBDL 102251Z 23004KT 10SM FEW065 00/M06 A2992 RMK AO2 SLP133 T00001056
KBDL 102151Z 23006KT 10SM BKN065 01/M05 A2990 RMK AO2 SLP126 T00061050
KBDL 102051Z 22006KT 10SM SCT047 BKN060 02/M05 A2988 RMK AO2 SLP118 T00171050 53015
KBDL 101951Z 22008KT 10SM FEW047 BKN060 03/M06 A2986 RMK AO2 SLP112 T00281056
KBDL 101851Z 29006KT 10SM SCT049 BKN060 03/M06 A2984 RMK AO2 SLP105 T00281061
KBDL 101751Z 29010KT 10SM SCT040 03/M05 A2983 RMK AO2 SLP103 4/005 T00281050 10028 21039 58001
KBDL 101651Z 27006KT 10SM FEW035 02/M05 A2983 RMK AO2 SLP103 T00221050
KBDL 101551Z 24007KT 10SM FEW035 01/M04 A2984 RMK AO2 SLP105 T00111044
KBDL 101451Z 27006KT 10SM FEW170 M01/M04 A2983 RMK AO2 SLP104 T10061044 51026
KBDL 101351Z 22004KT 10SM FEW120 BKN170 M02/M06 A2982 RMK AO2 SLP098 T10171056
KBDL 101251Z 29003KT 10SM SCT120 BKN140 BKN160 M02/M06 A2978 RMK AO2 SLP087 T10221061
KBDL 101151Z 22003KT 10SM SCT120 BKN160 M04/M05 A2976 RMK AO2 SLP079 4/006 60000 70047 T10391050 11006 21039 53025
KBDL 101051Z 00000KT 10SM FEW100 BKN160 M02/M05 A2973 RMK AO2 SLP069 T10221050
KBDL 100951Z 32008KT 3SM SCT021 SCT130 M02/M04 A2971 RMK AO2 SFC VIS 10 SLP062 T10171044
KBDL 100851Z 00000KT 3SM FEW065 BKN090 BKN130 M02/M03 A2968 RMK AO2 SFC VIS 10 SNE45 SLP053 P0000 60000 T10171028 51006
KBDL 100751Z 00000KT 3SM -SN BKN050 BKN075 OVC120 M01/M02 A2968 RMK AO2 SFC VIS 10 SLP051 P0000 T10111022
KBDL 100651Z 00000KT 3SM -SN BKN055 BKN080 OVC110 M02/M03 A2968 RMK AO2 SFC VIS 9 SLP051 P0000 T10171028
KBDL 100551Z 00000KT 3SM -SN FEW037 BKN055 OVC080 M01/M02 A2966 RMK AO2 SFC VIS 9 SLP046 4/006 P0000 60007 T10111022 11011 21017 58006
KBDL 100451Z 34006KT 3SM -SN BR FEW021 OVC034 M01/M02 A2969 RMK AO2 SFC VIS 4 SLP054 P0000 T10111022 400061017
KBDL 100407Z 33006KT 3SM -SN BR SCT023 OVC038 M01/M02 A2969 RMK AO2 SFC VIS 5 P0000 T10111022
KBDL 100351Z 34007KT 2SM -SN BR OVC023 M01/M02 A2968 RMK AO2 SLP051 P0002 T10111022